sensor_id;sensor_type;location;lat;lon;timestamp;P1;durP1;ratioP1;P2;durP2;ratioP2
57643;SDS011;43474;46.510;6.686;2022-07-29T00:00:00;3.95;;;2.10;;
57643;SDS011;43474;46.510;6.686;2022-07-29T00:02:27;2.50;;;2.03;;
57643;SDS011;43474;46.510;6.686;2022-07-29T00:04:52;3.28;;;2.25;;
57643;SDS011;43474;46.510;6.686;2022-07-29T00:07:18;2.58;;;2.05;;
57643;SDS011;43474;46.510;6.686;2022-07-29T00:09:44;2.70;;;2.00;;
57643;SDS011;43474;46.510;6.686;2022-07-29T00:12:10;4.10;;;2.20;;
57643;SDS011;43474;46.510;6.686;2022-07-29T00:14:35;4.70;;;1.90;;
57643;SDS011;43474;46.510;6.686;2022-07-29T00:17:01;4.28;;;2.10;;
57643;SDS011;43474;46.510;6.686;2022-07-29T00:19:26;3.13;;;1.90;;
57643;SDS011;43474;46.510;6.686;2022-07-29T00:21:52;2.60;;;1.90;;
57643;SDS011;43474;46.510;6.686;2022-07-29T00:24:17;2.33;;;2.00;;
57643;SDS011;43474;46.510;6.686;2022-07-29T00:26:43;3.22;;;2.05;;
57643;SDS011;43474;46.510;6.686;2022-07-29T00:29:08;3.38;;;2.28;;
57643;SDS011;43474;46.510;6.686;2022-07-29T00:31:34;2.65;;;2.10;;
57643;SDS011;43474;46.510;6.686;2022-07-29T00:34:00;3.00;;;2.10;;
57643;SDS011;43474;46.510;6.686;2022-07-29T00:36:25;2.47;;;2.03;;
57643;SDS011;43474;46.510;6.686;2022-07-29T00:38:51;4.20;;;1.83;;
57643;SDS011;43474;46.510;6.686;2022-07-29T00:41:17;3.55;;;2.17;;
57643;SDS011;43474;46.510;6.686;2022-07-29T00:43:43;7.57;;;2.30;;
57643;SDS011;43474;46.510;6.686;2022-07-29T00:46:09;3.40;;;2.00;;
57643;SDS011;43474;46.510;6.686;2022-07-29T00:48:35;2.92;;;2.20;;
57643;SDS011;43474;46.510;6.686;2022-07-29T00:51:02;3.85;;;2.00;;
57643;SDS011;43474;46.510;6.686;2022-07-29T00:53:29;5.25;;;2.35;;
57643;SDS011;43474;46.510;6.686;2022-07-29T00:55:55;4.97;;;2.17;;
57643;SDS011;43474;46.510;6.686;2022-07-29T00:58:21;4.20;;;2.15;;
57643;SDS011;43474;46.510;6.686;2022-07-29T01:00:48;3.10;;;1.92;;
57643;SDS011;43474;46.510;6.686;2022-07-29T01:03:13;5.43;;;2.10;;
57643;SDS011;43474;46.510;6.686;2022-07-29T01:05:39;5.25;;;2.33;;
57643;SDS011;43474;46.510;6.686;2022-07-29T01:08:06;2.83;;;2.10;;
57643;SDS011;43474;46.510;6.686;2022-07-29T01:10:33;3.17;;;1.90;;
57643;SDS011;43474;46.510;6.686;2022-07-29T01:13:02;4.03;;;1.88;;
57643;SDS011;43474;46.510;6.686;2022-07-29T01:15:28;3.15;;;2.15;;
57643;SDS011;43474;46.510;6.686;2022-07-29T01:17:57;3.10;;;2.17;;
57643;SDS011;43474;46.510;6.686;2022-07-29T01:23:25;4.80;;;2.17;;
57643;SDS011;43474;46.510;6.686;2022-07-29T01:28:45;3.40;;;2.10;;
57643;SDS011;43474;46.510;6.686;2022-07-29T01:31:19;2.38;;;1.90;;
57643;SDS011;43474;46.510;6.686;2022-07-29T01:33:50;2.33;;;2.13;;
57643;SDS011;43474;46.510;6.686;2022-07-29T01:36:23;2.58;;;2.00;;
57643;SDS011;43474;46.510;6.686;2022-07-29T01:39:17;3.38;;;2.00;;
57643;SDS011;43474;46.510;6.686;2022-07-29T01:42:10;1.88;;;1.77;;
57643;SDS011;43474;46.510;6.686;2022-07-29T01:47:32;3.35;;;2.05;;
57643;SDS011;43474;46.510;6.686;2022-07-29T01:50:00;3.38;;;1.90;;
57643;SDS011;43474;46.510;6.686;2022-07-29T01:52:38;2.15;;;1.95;;
57643;SDS011;43474;46.510;6.686;2022-07-29T01:55:09;2.22;;;1.80;;
57643;SDS011;43474;46.510;6.686;2022-07-29T01:57:38;4.05;;;2.20;;
57643;SDS011;43474;46.510;6.686;2022-07-29T02:00:07;3.05;;;1.98;;
57643;SDS011;43474;46.510;6.686;2022-07-29T02:02:33;2.35;;;2.13;;
57643;SDS011;43474;46.510;6.686;2022-07-29T02:05:03;3.25;;;2.08;;
57643;SDS011;43474;46.510;6.686;2022-07-29T02:07:33;2.85;;;2.03;;
57643;SDS011;43474;46.510;6.686;2022-07-29T02:10:00;3.20;;;2.55;;
57643;SDS011;43474;46.510;6.686;2022-07-29T02:12:29;4.30;;;2.60;;
57643;SDS011;43474;46.510;6.686;2022-07-29T02:14:57;8.05;;;2.35;;
57643;SDS011;43474;46.510;6.686;2022-07-29T02:17:27;2.90;;;2.10;;
57643;SDS011;43474;46.510;6.686;2022-07-29T02:19:59;4.55;;;2.10;;
57643;SDS011;43474;46.510;6.686;2022-07-29T02:22:26;3.47;;;2.10;;
57643;SDS011;43474;46.510;6.686;2022-07-29T02:24:55;2.38;;;2.15;;
57643;SDS011;43474;46.510;6.686;2022-07-29T02:27:22;3.05;;;2.05;;
57643;SDS011;43474;46.510;6.686;2022-07-29T02:29:49;2.30;;;2.10;;
57643;SDS011;43474;46.510;6.686;2022-07-29T02:32:16;3.75;;;2.40;;
57643;SDS011;43474;46.510;6.686;2022-07-29T02:34:44;2.30;;;2.10;;
57643;SDS011;43474;46.510;6.686;2022-07-29T02:37:12;2.25;;;2.05;;
57643;SDS011;43474;46.510;6.686;2022-07-29T02:39:39;3.08;;;1.80;;
57643;SDS011;43474;46.510;6.686;2022-07-29T02:42:08;2.22;;;2.00;;
57643;SDS011;43474;46.510;6.686;2022-07-29T02:44:37;2.40;;;2.20;;
57643;SDS011;43474;46.510;6.686;2022-07-29T02:50:02;2.85;;;2.17;;
57643;SDS011;43474;46.510;6.686;2022-07-29T02:52:35;2.28;;;1.95;;
57643;SDS011;43474;46.510;6.686;2022-07-29T02:55:16;3.90;;;2.00;;
57643;SDS011;43474;46.510;6.686;2022-07-29T02:57:49;2.28;;;2.08;;
57643;SDS011;43474;46.510;6.686;2022-07-29T03:00:30;2.95;;;2.10;;
57643;SDS011;43474;46.510;6.686;2022-07-29T03:02:59;3.05;;;2.10;;
57643;SDS011;43474;46.510;6.686;2022-07-29T03:05:29;3.40;;;2.10;;
57643;SDS011;43474;46.510;6.686;2022-07-29T03:07:57;4.13;;;2.28;;
57643;SDS011;43474;46.510;6.686;2022-07-29T03:10:26;6.70;;;2.63;;
57643;SDS011;43474;46.510;6.686;2022-07-29T03:12:53;3.30;;;2.08;;
57643;SDS011;43474;46.510;6.686;2022-07-29T03:15:20;2.75;;;2.30;;
57643;SDS011;43474;46.510;6.686;2022-07-29T03:17:46;2.92;;;2.40;;
57643;SDS011;43474;46.510;6.686;2022-07-29T03:20:13;2.83;;;2.38;;
57643;SDS011;43474;46.510;6.686;2022-07-29T03:22:39;3.78;;;2.60;;
57643;SDS011;43474;46.510;6.686;2022-07-29T03:25:09;3.07;;;2.60;;
57643;SDS011;43474;46.510;6.686;2022-07-29T03:27:36;3.00;;;2.60;;
57643;SDS011;43474;46.510;6.686;2022-07-29T03:30:02;2.85;;;2.63;;
57643;SDS011;43474;46.510;6.686;2022-07-29T03:32:28;2.60;;;2.40;;
57643;SDS011;43474;46.510;6.686;2022-07-29T03:34:54;6.15;;;2.83;;
57643;SDS011;43474;46.510;6.686;2022-07-29T03:37:19;3.15;;;2.83;;
57643;SDS011;43474;46.510;6.686;2022-07-29T03:39:45;4.55;;;2.78;;
57643;SDS011;43474;46.510;6.686;2022-07-29T03:42:13;3.47;;;2.85;;
57643;SDS011;43474;46.510;6.686;2022-07-29T03:44:41;3.15;;;2.75;;
57643;SDS011;43474;46.510;6.686;2022-07-29T03:47:09;5.55;;;2.72;;
57643;SDS011;43474;46.510;6.686;2022-07-29T03:49:37;3.40;;;2.72;;
57643;SDS011;43474;46.510;6.686;2022-07-29T03:52:04;3.50;;;2.78;;
57643;SDS011;43474;46.510;6.686;2022-07-29T03:54:30;3.25;;;2.90;;
57643;SDS011;43474;46.510;6.686;2022-07-29T03:56:55;4.07;;;2.75;;
57643;SDS011;43474;46.510;6.686;2022-07-29T03:59:25;3.07;;;2.80;;
57643;SDS011;43474;46.510;6.686;2022-07-29T04:01:52;4.88;;;3.05;;
57643;SDS011;43474;46.510;6.686;2022-07-29T04:04:18;5.00;;;3.35;;
57643;SDS011;43474;46.510;6.686;2022-07-29T04:06:44;3.00;;;2.70;;
57643;SDS011;43474;46.510;6.686;2022-07-29T04:09:11;5.20;;;2.92;;
57643;SDS011;43474;46.510;6.686;2022-07-29T04:11:40;5.50;;;2.72;;
57643;SDS011;43474;46.510;6.686;2022-07-29T04:14:06;2.88;;;2.38;;
57643;SDS011;43474;46.510;6.686;2022-07-29T04:16:32;3.22;;;2.92;;
57643;SDS011;43474;46.510;6.686;2022-07-29T04:18:57;4.15;;;2.60;;
57643;SDS011;43474;46.510;6.686;2022-07-29T04:21:23;6.85;;;3.03;;
57643;SDS011;43474;46.510;6.686;2022-07-29T04:23:49;4.60;;;2.90;;
57643;SDS011;43474;46.510;6.686;2022-07-29T04:26:18;4.05;;;2.90;;
57643;SDS011;43474;46.510;6.686;2022-07-29T04:28:45;3.33;;;2.53;;
57643;SDS011;43474;46.510;6.686;2022-07-29T04:31:10;4.50;;;2.80;;
57643;SDS011;43474;46.510;6.686;2022-07-29T04:33:37;3.03;;;2.63;;
57643;SDS011;43474;46.510;6.686;2022-07-29T04:36:02;3.67;;;2.47;;
57643;SDS011;43474;46.510;6.686;2022-07-29T04:38:28;3.22;;;2.72;;
57643;SDS011;43474;46.510;6.686;2022-07-29T04:40:54;7.32;;;2.80;;
57643;SDS011;43474;46.510;6.686;2022-07-29T04:43:19;5.20;;;2.65;;
57643;SDS011;43474;46.510;6.686;2022-07-29T04:45:45;3.08;;;2.63;;
57643;SDS011;43474;46.510;6.686;2022-07-29T04:48:10;3.70;;;2.65;;
57643;SDS011;43474;46.510;6.686;2022-07-29T04:50:39;4.18;;;2.75;;
57643;SDS011;43474;46.510;6.686;2022-07-29T04:53:05;4.53;;;2.85;;
57643;SDS011;43474;46.510;6.686;2022-07-29T04:55:32;4.53;;;2.60;;
57643;SDS011;43474;46.510;6.686;2022-07-29T04:57:57;3.65;;;2.90;;
57643;SDS011;43474;46.510;6.686;2022-07-29T05:00:22;4.20;;;2.90;;
57643;SDS011;43474;46.510;6.686;2022-07-29T05:02:48;3.28;;;2.70;;
57643;SDS011;43474;46.510;6.686;2022-07-29T05:05:14;5.22;;;3.03;;
57643;SDS011;43474;46.510;6.686;2022-07-29T05:07:40;4.88;;;2.53;;
57643;SDS011;43474;46.510;6.686;2022-07-29T05:10:05;3.25;;;2.53;;
57643;SDS011;43474;46.510;6.686;2022-07-29T05:12:31;5.25;;;3.08;;
57643;SDS011;43474;46.510;6.686;2022-07-29T05:14:57;4.65;;;2.90;;
57643;SDS011;43474;46.510;6.686;2022-07-29T05:17:22;3.85;;;2.90;;
57643;SDS011;43474;46.510;6.686;2022-07-29T05:19:48;4.50;;;2.85;;
57643;SDS011;43474;46.510;6.686;2022-07-29T05:22:15;3.97;;;2.75;;
57643;SDS011;43474;46.510;6.686;2022-07-29T05:24:41;3.13;;;2.83;;
57643;SDS011;43474;46.510;6.686;2022-07-29T05:27:06;4.75;;;3.10;;
57643;SDS011;43474;46.510;6.686;2022-07-29T05:29:32;4.07;;;2.55;;
57643;SDS011;43474;46.510;6.686;2022-07-29T05:31:57;4.70;;;3.03;;
57643;SDS011;43474;46.510;6.686;2022-07-29T05:34:23;4.43;;;2.70;;
57643;SDS011;43474;46.510;6.686;2022-07-29T05:36:50;3.45;;;2.72;;
57643;SDS011;43474;46.510;6.686;2022-07-29T05:39:16;9.80;;;2.80;;
57643;SDS011;43474;46.510;6.686;2022-07-29T05:41:41;3.00;;;2.70;;
57643;SDS011;43474;46.510;6.686;2022-07-29T05:44:06;3.25;;;2.95;;
57643;SDS011;43474;46.510;6.686;2022-07-29T05:46:32;3.05;;;2.72;;
57643;SDS011;43474;46.510;6.686;2022-07-29T05:48:58;4.43;;;2.85;;
57643;SDS011;43474;46.510;6.686;2022-07-29T05:51:23;4.18;;;2.70;;
57643;SDS011;43474;46.510;6.686;2022-07-29T05:53:49;3.10;;;2.80;;
57643;SDS011;43474;46.510;6.686;2022-07-29T05:56:14;5.57;;;2.92;;
57643;SDS011;43474;46.510;6.686;2022-07-29T05:58:39;4.22;;;2.70;;
57643;SDS011;43474;46.510;6.686;2022-07-29T06:01:05;4.68;;;2.60;;
57643;SDS011;43474;46.510;6.686;2022-07-29T06:03:30;3.72;;;2.55;;
57643;SDS011;43474;46.510;6.686;2022-07-29T06:05:56;5.95;;;2.88;;
57643;SDS011;43474;46.510;6.686;2022-07-29T06:08:21;9.65;;;3.10;;
57643;SDS011;43474;46.510;6.686;2022-07-29T06:10:47;2.83;;;2.50;;
57643;SDS011;43474;46.510;6.686;2022-07-29T06:13:13;4.35;;;2.45;;
57643;SDS011;43474;46.510;6.686;2022-07-29T06:15:41;4.35;;;2.90;;
57643;SDS011;43474;46.510;6.686;2022-07-29T06:18:07;3.75;;;2.83;;
57643;SDS011;43474;46.510;6.686;2022-07-29T06:20:34;5.07;;;3.00;;
57643;SDS011;43474;46.510;6.686;2022-07-29T06:23:00;3.80;;;3.03;;
57643;SDS011;43474;46.510;6.686;2022-07-29T06:25:26;3.60;;;3.05;;
57643;SDS011;43474;46.510;6.686;2022-07-29T06:27:54;4.55;;;2.90;;
57643;SDS011;43474;46.510;6.686;2022-07-29T06:30:20;3.75;;;2.80;;
57643;SDS011;43474;46.510;6.686;2022-07-29T06:32:45;4.35;;;2.90;;
57643;SDS011;43474;46.510;6.686;2022-07-29T06:35:11;5.80;;;3.00;;
57643;SDS011;43474;46.510;6.686;2022-07-29T06:37:36;4.43;;;2.97;;
57643;SDS011;43474;46.510;6.686;2022-07-29T06:40:03;3.42;;;2.65;;
57643;SDS011;43474;46.510;6.686;2022-07-29T06:42:48;5.50;;;2.92;;
57643;SDS011;43474;46.510;6.686;2022-07-29T06:45:14;4.80;;;3.10;;
57643;SDS011;43474;46.510;6.686;2022-07-29T06:47:39;6.13;;;3.13;;
57643;SDS011;43474;46.510;6.686;2022-07-29T06:50:05;6.65;;;2.83;;
57643;SDS011;43474;46.510;6.686;2022-07-29T06:52:31;5.28;;;3.25;;
57643;SDS011;43474;46.510;6.686;2022-07-29T06:54:56;5.45;;;3.20;;
57643;SDS011;43474;46.510;6.686;2022-07-29T06:57:22;3.83;;;3.42;;
57643;SDS011;43474;46.510;6.686;2022-07-29T06:59:48;5.28;;;3.03;;
57643;SDS011;43474;46.510;6.686;2022-07-29T07:02:13;4.25;;;3.00;;
57643;SDS011;43474;46.510;6.686;2022-07-29T07:04:39;3.03;;;2.72;;
57643;SDS011;43474;46.510;6.686;2022-07-29T07:07:05;3.95;;;2.78;;
57643;SDS011;43474;46.510;6.686;2022-07-29T07:09:30;4.82;;;3.35;;
57643;SDS011;43474;46.510;6.686;2022-07-29T07:11:56;3.20;;;2.90;;
57643;SDS011;43474;46.510;6.686;2022-07-29T07:14:21;3.70;;;3.40;;
57643;SDS011;43474;46.510;6.686;2022-07-29T07:16:47;5.10;;;3.00;;
57643;SDS011;43474;46.510;6.686;2022-07-29T07:19:12;6.47;;;2.80;;
57643;SDS011;43474;46.510;6.686;2022-07-29T07:21:38;4.47;;;2.72;;
57643;SDS011;43474;46.510;6.686;2022-07-29T07:24:03;3.83;;;3.45;;
57643;SDS011;43474;46.510;6.686;2022-07-29T07:26:29;6.85;;;3.15;;
57643;SDS011;43474;46.510;6.686;2022-07-29T07:28:55;6.13;;;3.17;;
57643;SDS011;43474;46.510;6.686;2022-07-29T07:31:21;4.72;;;3.00;;
57643;SDS011;43474;46.510;6.686;2022-07-29T07:33:46;5.72;;;3.50;;
57643;SDS011;43474;46.510;6.686;2022-07-29T07:36:12;4.15;;;3.15;;
57643;SDS011;43474;46.510;6.686;2022-07-29T07:38:47;3.30;;;3.00;;
57643;SDS011;43474;46.510;6.686;2022-07-29T07:41:12;5.80;;;3.58;;
57643;SDS011;43474;46.510;6.686;2022-07-29T07:43:38;4.40;;;3.47;;
57643;SDS011;43474;46.510;6.686;2022-07-29T07:46:03;4.72;;;3.50;;
57643;SDS011;43474;46.510;6.686;2022-07-29T07:48:29;3.47;;;3.17;;
57643;SDS011;43474;46.510;6.686;2022-07-29T07:50:55;5.13;;;3.15;;
57643;SDS011;43474;46.510;6.686;2022-07-29T07:53:21;3.63;;;2.95;;
57643;SDS011;43474;46.510;6.686;2022-07-29T07:55:47;4.07;;;3.20;;
57643;SDS011;43474;46.510;6.686;2022-07-29T07:58:12;4.55;;;3.30;;
57643;SDS011;43474;46.510;6.686;2022-07-29T08:00:38;4.95;;;3.85;;
57643;SDS011;43474;46.510;6.686;2022-07-29T08:03:03;3.97;;;3.47;;
57643;SDS011;43474;46.510;6.686;2022-07-29T08:05:29;3.97;;;3.50;;
57643;SDS011;43474;46.510;6.686;2022-07-29T08:07:54;3.88;;;3.47;;
57643;SDS011;43474;46.510;6.686;2022-07-29T08:10:20;4.30;;;3.13;;
57643;SDS011;43474;46.510;6.686;2022-07-29T08:13:08;4.95;;;3.55;;
57643;SDS011;43474;46.510;6.686;2022-07-29T08:15:35;6.10;;;3.65;;
57643;SDS011;43474;46.510;6.686;2022-07-29T08:18:01;5.43;;;3.30;;
57643;SDS011;43474;46.510;6.686;2022-07-29T08:20:27;6.88;;;3.95;;
57643;SDS011;43474;46.510;6.686;2022-07-29T08:22:52;5.93;;;3.40;;
57643;SDS011;43474;46.510;6.686;2022-07-29T08:25:18;4.35;;;3.78;;
57643;SDS011;43474;46.510;6.686;2022-07-29T08:27:45;4.10;;;3.70;;
57643;SDS011;43474;46.510;6.686;2022-07-29T08:30:24;6.18;;;3.75;;
57643;SDS011;43474;46.510;6.686;2022-07-29T08:32:50;4.55;;;3.50;;
57643;SDS011;43474;46.510;6.686;2022-07-29T08:35:18;6.63;;;3.63;;
57643;SDS011;43474;46.510;6.686;2022-07-29T08:37:44;5.45;;;4.00;;
57643;SDS011;43474;46.510;6.686;2022-07-29T08:40:10;4.35;;;3.58;;
57643;SDS011;43474;46.510;6.686;2022-07-29T08:42:35;5.13;;;3.70;;
57643;SDS011;43474;46.510;6.686;2022-07-29T08:45:02;4.97;;;4.13;;
57643;SDS011;43474;46.510;6.686;2022-07-29T08:47:28;6.03;;;4.10;;
57643;SDS011;43474;46.510;6.686;2022-07-29T08:49:54;4.70;;;4.18;;
57643;SDS011;43474;46.510;6.686;2022-07-29T08:52:20;5.45;;;4.28;;
57643;SDS011;43474;46.510;6.686;2022-07-29T08:54:47;4.53;;;3.92;;
57643;SDS011;43474;46.510;6.686;2022-07-29T08:57:13;4.82;;;4.10;;
57643;SDS011;43474;46.510;6.686;2022-07-29T08:59:39;6.43;;;4.38;;
57643;SDS011;43474;46.510;6.686;2022-07-29T09:02:10;6.10;;;4.55;;
57643;SDS011;43474;46.510;6.686;2022-07-29T09:04:40;5.95;;;4.03;;
57643;SDS011;43474;46.510;6.686;2022-07-29T09:07:06;5.40;;;4.53;;
57643;SDS011;43474;46.510;6.686;2022-07-29T09:09:34;4.90;;;4.40;;
57643;SDS011;43474;46.510;6.686;2022-07-29T09:12:00;6.72;;;4.35;;
57643;SDS011;43474;46.510;6.686;2022-07-29T09:14:26;4.57;;;4.18;;
57643;SDS011;43474;46.510;6.686;2022-07-29T09:16:53;7.05;;;4.22;;
57643;SDS011;43474;46.510;6.686;2022-07-29T09:21:52;8.10;;;4.40;;
57643;SDS011;43474;46.510;6.686;2022-07-29T09:26:59;5.45;;;4.07;;
57643;SDS011;43474;46.510;6.686;2022-07-29T09:29:25;5.75;;;4.45;;
57643;SDS011;43474;46.510;6.686;2022-07-29T09:31:52;6.15;;;4.47;;
57643;SDS011;43474;46.510;6.686;2022-07-29T09:34:23;7.15;;;4.47;;
57643;SDS011;43474;46.510;6.686;2022-07-29T09:36:52;7.00;;;4.80;;
57643;SDS011;43474;46.510;6.686;2022-07-29T09:39:34;6.55;;;4.28;;
57643;SDS011;43474;46.510;6.686;2022-07-29T09:42:04;5.20;;;4.68;;
57643;SDS011;43474;46.510;6.686;2022-07-29T09:44:44;7.93;;;4.65;;
57643;SDS011;43474;46.510;6.686;2022-07-29T09:47:15;6.70;;;4.70;;
57643;SDS011;43474;46.510;6.686;2022-07-29T09:49:52;7.38;;;4.95;;
57643;SDS011;43474;46.510;6.686;2022-07-29T09:52:20;7.05;;;4.88;;
57643;SDS011;43474;46.510;6.686;2022-07-29T09:54:46;5.28;;;4.43;;
57643;SDS011;43474;46.510;6.686;2022-07-29T09:57:25;6.68;;;4.85;;
57643;SDS011;43474;46.510;6.686;2022-07-29T09:59:56;10.25;;;4.55;;
57643;SDS011;43474;46.510;6.686;2022-07-29T10:02:24;5.30;;;4.50;;
57643;SDS011;43474;46.510;6.686;2022-07-29T10:04:53;10.65;;;4.95;;
57643;SDS011;43474;46.510;6.686;2022-07-29T10:07:18;6.05;;;5.07;;
57643;SDS011;43474;46.510;6.686;2022-07-29T10:09:52;7.07;;;5.05;;
57643;SDS011;43474;46.510;6.686;2022-07-29T10:12:19;6.40;;;4.53;;
57643;SDS011;43474;46.510;6.686;2022-07-29T10:14:45;4.43;;;4.03;;
57643;SDS011;43474;46.510;6.686;2022-07-29T10:17:12;7.22;;;4.50;;
57643;SDS011;43474;46.510;6.686;2022-07-29T10:19:38;5.78;;;4.32;;
57643;SDS011;43474;46.510;6.686;2022-07-29T10:22:06;5.85;;;4.93;;
57643;SDS011;43474;46.510;6.686;2022-07-29T10:24:33;5.38;;;4.88;;
57643;SDS011;43474;46.510;6.686;2022-07-29T10:27:00;8.50;;;4.97;;
57643;SDS011;43474;46.510;6.686;2022-07-29T10:29:28;5.03;;;4.50;;
57643;SDS011;43474;46.510;6.686;2022-07-29T10:41:04;8.40;;;4.60;;
57643;SDS011;43474;46.510;6.686;2022-07-29T10:43:51;5.20;;;4.70;;
57643;SDS011;43474;46.510;6.686;2022-07-29T10:46:23;5.13;;;4.57;;
57643;SDS011;43474;46.510;6.686;2022-07-29T10:51:56;6.38;;;4.50;;
57643;SDS011;43474;46.510;6.686;2022-07-29T10:59:41;6.38;;;4.40;;
57643;SDS011;43474;46.510;6.686;2022-07-29T11:05:05;5.68;;;4.68;;
57643;SDS011;43474;46.510;6.686;2022-07-29T11:07:34;5.38;;;4.60;;
57643;SDS011;43474;46.510;6.686;2022-07-29T11:23:32;7.43;;;4.78;;
57643;SDS011;43474;46.510;6.686;2022-07-29T11:28:52;6.80;;;5.43;;
57643;SDS011;43474;46.510;6.686;2022-07-29T11:39:37;7.18;;;5.28;;
57643;SDS011;43474;46.510;6.686;2022-07-29T11:47:24;6.07;;;5.15;;
57643;SDS011;43474;46.510;6.686;2022-07-29T11:49:51;6.82;;;5.45;;
57643;SDS011;43474;46.510;6.686;2022-07-29T11:52:17;6.45;;;5.45;;
57643;SDS011;43474;46.510;6.686;2022-07-29T11:54:43;7.82;;;5.75;;
57643;SDS011;43474;46.510;6.686;2022-07-29T11:57:12;6.30;;;5.38;;
57643;SDS011;43474;46.510;6.686;2022-07-29T11:59:42;7.40;;;5.57;;
57643;SDS011;43474;46.510;6.686;2022-07-29T12:02:09;8.60;;;5.65;;
57643;SDS011;43474;46.510;6.686;2022-07-29T12:04:48;10.65;;;5.90;;
57643;SDS011;43474;46.510;6.686;2022-07-29T12:07:15;6.18;;;5.47;;
57643;SDS011;43474;46.510;6.686;2022-07-29T12:09:48;7.60;;;5.47;;
57643;SDS011;43474;46.510;6.686;2022-07-29T12:12:18;6.72;;;5.10;;
57643;SDS011;43474;46.510;6.686;2022-07-29T12:14:44;6.40;;;5.80;;
57643;SDS011;43474;46.510;6.686;2022-07-29T12:19:54;7.60;;;5.15;;
57643;SDS011;43474;46.510;6.686;2022-07-29T12:24:53;5.57;;;4.60;;
57643;SDS011;43474;46.510;6.686;2022-07-29T12:27:20;6.15;;;3.92;;
57643;SDS011;43474;46.510;6.686;2022-07-29T12:29:55;5.07;;;3.80;;
57643;SDS011;43474;46.510;6.686;2022-07-29T12:32:22;5.85;;;3.80;;
57643;SDS011;43474;46.510;6.686;2022-07-29T12:34:48;5.95;;;4.38;;
57643;SDS011;43474;46.510;6.686;2022-07-29T12:37:14;5.07;;;4.18;;
57643;SDS011;43474;46.510;6.686;2022-07-29T12:39:40;4.57;;;3.90;;
57643;SDS011;43474;46.510;6.686;2022-07-29T12:42:12;5.45;;;4.18;;
57643;SDS011;43474;46.510;6.686;2022-07-29T12:44:43;8.75;;;4.18;;
57643;SDS011;43474;46.510;6.686;2022-07-29T12:47:13;6.25;;;4.43;;
57643;SDS011;43474;46.510;6.686;2022-07-29T12:49:39;5.60;;;4.03;;
57643;SDS011;43474;46.510;6.686;2022-07-29T12:54:51;5.95;;;4.25;;
57643;SDS011;43474;46.510;6.686;2022-07-29T12:57:16;6.03;;;4.47;;
57643;SDS011;43474;46.510;6.686;2022-07-29T12:59:42;5.13;;;4.45;;
57643;SDS011;43474;46.510;6.686;2022-07-29T13:02:19;5.78;;;5.18;;
57643;SDS011;43474;46.510;6.686;2022-07-29T13:04:54;7.75;;;4.90;;
57643;SDS011;43474;46.510;6.686;2022-07-29T13:07:25;7.80;;;5.03;;
57643;SDS011;43474;46.510;6.686;2022-07-29T13:09:53;5.95;;;4.90;;
57643;SDS011;43474;46.510;6.686;2022-07-29T13:12:19;7.40;;;5.40;;
57643;SDS011;43474;46.510;6.686;2022-07-29T13:14:46;7.45;;;4.63;;
57643;SDS011;43474;46.510;6.686;2022-07-29T13:17:20;7.68;;;5.32;;
57643;SDS011;43474;46.510;6.686;2022-07-29T13:20:14;5.65;;;5.05;;
57643;SDS011;43474;46.510;6.686;2022-07-29T13:22:39;8.90;;;5.10;;
57643;SDS011;43474;46.510;6.686;2022-07-29T13:25:08;5.95;;;5.20;;
57643;SDS011;43474;46.510;6.686;2022-07-29T13:27:35;6.32;;;4.85;;
57643;SDS011;43474;46.510;6.686;2022-07-29T13:30:03;5.72;;;4.95;;
57643;SDS011;43474;46.510;6.686;2022-07-29T13:32:31;6.78;;;4.82;;
57643;SDS011;43474;46.510;6.686;2022-07-29T13:35:00;7.45;;;5.07;;
57643;SDS011;43474;46.510;6.686;2022-07-29T13:37:27;5.25;;;4.75;;
57643;SDS011;43474;46.510;6.686;2022-07-29T13:39:57;5.22;;;4.72;;
57643;SDS011;43474;46.510;6.686;2022-07-29T13:42:24;5.35;;;4.30;;
57643;SDS011;43474;46.510;6.686;2022-07-29T13:44:50;6.90;;;4.50;;
57643;SDS011;43474;46.510;6.686;2022-07-29T13:47:17;5.30;;;4.40;;
57643;SDS011;43474;46.510;6.686;2022-07-29T13:49:43;8.80;;;4.78;;
57643;SDS011;43474;46.510;6.686;2022-07-29T13:52:09;4.63;;;4.20;;
57643;SDS011;43474;46.510;6.686;2022-07-29T13:54:34;6.20;;;4.30;;
57643;SDS011;43474;46.510;6.686;2022-07-29T13:57:06;7.47;;;4.22;;
57643;SDS011;43474;46.510;6.686;2022-07-29T13:59:32;4.88;;;4.13;;
57643;SDS011;43474;46.510;6.686;2022-07-29T14:01:58;6.80;;;4.30;;
57643;SDS011;43474;46.510;6.686;2022-07-29T14:04:24;5.63;;;4.47;;
57643;SDS011;43474;46.510;6.686;2022-07-29T14:06:49;5.07;;;4.20;;
57643;SDS011;43474;46.510;6.686;2022-07-29T14:09:16;4.75;;;4.18;;
57643;SDS011;43474;46.510;6.686;2022-07-29T14:11:41;5.85;;;4.20;;
57643;SDS011;43474;46.510;6.686;2022-07-29T14:14:07;9.65;;;4.30;;
57643;SDS011;43474;46.510;6.686;2022-07-29T14:16:33;5.35;;;3.85;;
57643;SDS011;43474;46.510;6.686;2022-07-29T14:18:58;5.22;;;3.70;;
57643;SDS011;43474;46.510;6.686;2022-07-29T14:21:24;4.90;;;4.13;;
57643;SDS011;43474;46.510;6.686;2022-07-29T14:23:50;4.43;;;4.00;;
57643;SDS011;43474;46.510;6.686;2022-07-29T14:26:17;4.20;;;3.80;;
57643;SDS011;43474;46.510;6.686;2022-07-29T14:28:42;7.40;;;4.25;;
57643;SDS011;43474;46.510;6.686;2022-07-29T14:31:08;4.68;;;4.00;;
57643;SDS011;43474;46.510;6.686;2022-07-29T14:33:34;7.32;;;3.90;;
57643;SDS011;43474;46.510;6.686;2022-07-29T14:35:59;5.68;;;3.92;;
57643;SDS011;43474;46.510;6.686;2022-07-29T14:38:25;6.15;;;3.65;;
57643;SDS011;43474;46.510;6.686;2022-07-29T14:40:50;4.25;;;3.35;;
57643;SDS011;43474;46.510;6.686;2022-07-29T14:43:16;4.18;;;3.60;;
57643;SDS011;43474;46.510;6.686;2022-07-29T14:45:41;4.18;;;3.28;;
57643;SDS011;43474;46.510;6.686;2022-07-29T14:48:07;4.18;;;3.53;;
57643;SDS011;43474;46.510;6.686;2022-07-29T14:50:33;4.03;;;3.15;;
57643;SDS011;43474;46.510;6.686;2022-07-29T14:53:01;6.35;;;3.75;;
57643;SDS011;43474;46.510;6.686;2022-07-29T14:55:28;3.95;;;3.53;;
57643;SDS011;43474;46.510;6.686;2022-07-29T14:57:53;6.80;;;3.40;;
57643;SDS011;43474;46.510;6.686;2022-07-29T15:00:20;3.70;;;3.30;;
57643;SDS011;43474;46.510;6.686;2022-07-29T15:02:46;10.20;;;3.95;;
57643;SDS011;43474;46.510;6.686;2022-07-29T15:05:12;4.40;;;3.50;;
57643;SDS011;43474;46.510;6.686;2022-07-29T15:07:38;4.72;;;3.22;;
57643;SDS011;43474;46.510;6.686;2022-07-29T15:10:03;4.00;;;3.40;;
57643;SDS011;43474;46.510;6.686;2022-07-29T15:12:29;5.40;;;3.80;;
57643;SDS011;43474;46.510;6.686;2022-07-29T15:14:56;5.63;;;3.50;;
57643;SDS011;43474;46.510;6.686;2022-07-29T15:17:21;4.13;;;3.40;;
57643;SDS011;43474;46.510;6.686;2022-07-29T15:19:47;4.07;;;3.60;;
57643;SDS011;43474;46.510;6.686;2022-07-29T15:22:12;4.38;;;3.50;;
57643;SDS011;43474;46.510;6.686;2022-07-29T15:24:38;6.25;;;3.60;;
57643;SDS011;43474;46.510;6.686;2022-07-29T15:27:03;3.90;;;3.28;;
57643;SDS011;43474;46.510;6.686;2022-07-29T15:29:29;6.18;;;3.55;;
57643;SDS011;43474;46.510;6.686;2022-07-29T15:31:54;3.97;;;3.03;;
57643;SDS011;43474;46.510;6.686;2022-07-29T15:34:20;3.15;;;2.85;;
57643;SDS011;43474;46.510;6.686;2022-07-29T15:36:46;5.30;;;2.90;;
57643;SDS011;43474;46.510;6.686;2022-07-29T15:39:11;4.68;;;3.15;;
57643;SDS011;43474;46.510;6.686;2022-07-29T15:41:37;4.50;;;3.45;;
57643;SDS011;43474;46.510;6.686;2022-07-29T15:44:03;4.88;;;3.40;;
57643;SDS011;43474;46.510;6.686;2022-07-29T15:46:28;4.45;;;3.40;;
57643;SDS011;43474;46.510;6.686;2022-07-29T15:49:12;4.10;;;3.70;;
57643;SDS011;43474;46.510;6.686;2022-07-29T15:51:37;5.95;;;3.55;;
57643;SDS011;43474;46.510;6.686;2022-07-29T15:54:03;5.65;;;3.30;;
57643;SDS011;43474;46.510;6.686;2022-07-29T15:56:29;4.25;;;3.55;;
57643;SDS011;43474;46.510;6.686;2022-07-29T15:58:55;3.70;;;3.40;;
57643;SDS011;43474;46.510;6.686;2022-07-29T16:01:21;6.97;;;3.60;;
57643;SDS011;43474;46.510;6.686;2022-07-29T16:03:47;4.03;;;3.63;;